Time;durP1;ratioP1;P1;durP2;ratioP2;P2;SDS_P1;SDS_P2;PMS_P1;PMS_P2;Temp;Humidity;BMP_temperature;BMP_pressure;BME280_temperature;BME280_humidity;BME280_pressure;Samples;Min_cycle;Max_cycle;Signal;HPM_P1;HPM_P2
2022/05/27 00:06:32;;;;;;;;;;;15.80;1.00;;;;;;6243765;23;19907;-86
2022/05/27 00:27:15;;;;;;;;;;;;;;;;;;;;;
2022/05/27 00:33:16;;;;;;;;;;;15.60;99.90;;;;;;6221876;23;19914;-87
2022/05/27 00:41:54;;;;;;;;;;;15.50;99.90;;;;;;6233905;23;20366;-87
2022/05/27 00:54:15;;;;;;;;;;;;;;;;;;;;;
2022/05/27 01:03:27;;;;;;;;;;;15.50;1.00;;;;;;6206009;23;19910;-86
2022/05/27 01:12:19;;;;;;;;;;;15.30;21.60;;;;;;6235423;23;20284;-87
2022/05/27 01:15:18;;;;;;;;;;;;;;;;;;;;;
2022/05/27 01:18:04;;;;;;;;;;;15.30;57.00;;;;;;6251170;23;19931;-87
2022/05/27 01:20:40;;;;;;;;;;;;;;;;;;;;;
2022/05/27 01:23:32;;;;;;;;;;;15.30;99.90;;;;;;6247392;23;20372;-85
2022/05/27 01:26:09;;;;;;;;;;;15.30;99.90;;;;;;6210789;23;19978;-85
2022/05/27 01:28:47;;;;;;;;;;;15.30;99.90;;;;;;6244527;23;19907;-85
2022/05/27 01:34:35;;;;;;;;;;;15.30;99.90;;;;;;6235113;23;19910;-86
2022/05/27 01:37:09;;;;;;;;;;;15.30;99.90;;;;;;6244811;23;19915;-85
2022/05/27 01:39:49;;;;;;;;;;;15.30;99.90;;;;;;6217344;23;19923;-85
2022/05/27 01:42:23;;;;;;;;;;;15.30;99.90;;;;;;6245249;23;20353;-85
2022/05/27 01:44:53;;;;;;;;;;;15.30;99.90;;;;;;6245279;23;19918;-86
2022/05/27 01:47:22;;;;;;;;;;;15.30;99.90;;;;;;6217994;23;20293;-85
2022/05/27 01:49:50;;;;;;;;;;;15.20;99.90;;;;;;6217480;23;19911;-86
2022/05/27 01:52:22;;;;;;;;;;;15.20;99.90;;;;;;6218544;23;19903;-85
2022/05/27 01:55:14;;;;;;;;;;;15.20;99.90;;;;;;6217810;23;19911;-85
2022/05/27 01:57:48;;;;;;;;;;;15.20;99.90;;;;;;6244444;23;19914;-86
2022/05/27 02:00:22;;;;;;;;;;;15.20;99.90;;;;;;6227684;23;19918;-86
2022/05/27 02:02:51;;;;;;;;;;;15.20;1.00;;;;;;6243822;23;20245;-86
2022/05/27 02:05:28;;;;;;;;;;;15.20;99.90;;;;;;6243159;23;19907;-85
2022/05/27 02:07:58;;;;;;;;;;;15.20;99.90;;;;;;6244378;22;19997;-86
2022/05/27 02:10:35;;;;;;;;;;;15.20;99.90;;;;;;6242503;23;20346;-85
2022/05/27 02:13:03;;;;;;;;;;;15.10;1.00;;;;;;6245114;22;19903;-86
2022/05/27 02:15:36;;;;;;;;;;;15.20;1.00;;;;;;6243116;23;19911;-85
2022/05/27 02:18:23;;;;;;;;;;;15.10;99.90;;;;;;6269248;22;20381;-85
2022/05/27 02:21:09;;;;;;;;;;;15.10;15.30;;;;;;6268612;22;19934;-86
2022/05/27 02:23:42;;;;;;;;;;;15.10;99.90;;;;;;6269214;22;20245;-86
2022/05/27 02:26:14;;;;;;;;;;;15.00;99.90;;;;;;6242961;23;19910;-84
2022/05/27 02:28:45;;;;;;;;;;;14.90;1.00;;;;;;6243840;22;19938;-85
2022/05/27 02:31:17;;;;;;;;;;;14.90;1.00;;;;;;6268942;22;20346;-86
2022/05/27 02:37:05;;;;;;;;;;;14.80;74.00;;;;;;6244104;23;19930;-85
2022/05/27 02:39:36;;;;;;;;;;;14.70;99.90;;;;;;6268636;22;19904;-85
2022/05/27 02:42:07;;;;;;;;;;;14.70;99.90;;;;;;6245079;22;19903;-86
2022/05/27 02:45:05;;;;;;;;;;;14.60;1.00;;;;;;6243794;23;20384;-85
2022/05/27 02:47:49;;;;;;;;;;;14.50;1.00;;;;;;6225815;22;19911;-84
2022/05/27 02:50:36;;;;;;;;;;;14.50;1.00;;;;;;6244731;23;19904;-85
2022/05/27 02:53:23;;;;;;;;;;;14.40;1.00;;;;;;6244002;23;19908;-86
2022/05/27 02:55:55;;;;;;;;;;;14.40;1.00;;;;;;6244800;22;20037;-85
2022/05/27 02:58:23;;;;;;;;;;;14.30;1.00;;;;;;6244646;22;19986;-85
2022/05/27 03:00:48;;;;;;;;;;;14.30;1.00;;;;;;6244529;22;20399;-85
2022/05/27 03:03:14;;;;;;;;;;;14.30;1.00;;;;;;6243036;23;19904;-85
2022/05/27 03:05:43;;;;;;;;;;;14.20;1.00;;;;;;6245071;23;20353;-85
2022/05/27 03:08:15;;;;;;;;;;;14.20;1.00;;;;;;6243220;23;19914;-85
2022/05/27 03:10:43;;;;;;;;;;;14.20;1.00;;;;;;6217841;23;19907;-84
2022/05/27 03:13:12;;;;;;;;;;;14.10;1.00;;;;;;6242748;23;20322;-84
2022/05/27 03:15:37;;;;;;;;;;;14.10;1.00;;;;;;6242771;23;19903;-85
2022/05/27 03:18:11;;;;;;;;;;;14.10;1.00;;;;;;6244794;23;19935;-84
2022/05/27 03:20:42;;;;;;;;;;;14.10;1.00;;;;;;6216629;23;19911;-84
2022/05/27 03:23:18;;;;;;;;;;;14.00;1.00;;;;;;6245039;23;19961;-85
2022/05/27 03:25:50;;;;;;;;;;;14.00;1.00;;;;;;6244074;23;19912;-84
2022/05/27 03:28:15;;;;;;;;;;;13.90;1.00;;;;;;6244548;23;19907;-85
2022/05/27 03:30:49;;;;;;;;;;;13.90;1.00;;;;;;6243386;23;19968;-85
2022/05/27 03:33:28;;;;;;;;;;;13.90;1.00;;;;;;6243708;23;19927;-85
2022/05/27 03:35:56;;;;;;;;;;;13.90;1.00;;;;;;6216610;23;20341;-86
2022/05/27 03:38:25;;;;;;;;;;;13.90;1.00;;;;;;6244224;23;19978;-85
2022/05/27 03:40:58;;;;;;;;;;;13.80;1.00;;;;;;6242166;23;19907;-85
2022/05/27 03:43:24;;;;;;;;;;;13.80;1.00;;;;;;6218377;23;20248;-85
2022/05/27 03:46:02;;;;;;;;;;;13.80;1.00;;;;;;6244392;23;19946;-85
2022/05/27 03:48:31;;;;;;;;;;;13.80;1.00;;;;;;6219647;23;19912;-85
2022/05/27 03:50:57;;;;;;;;;;;13.80;1.00;;;;;;6246070;23;19907;-85
2022/05/27 03:54:03;;;;;;;;;;;13.80;1.00;;;;;;6247357;23;19904;-85
2022/05/27 03:56:29;;;;;;;;;;;13.90;1.00;;;;;;6246395;23;19903;-85
2022/05/27 03:59:02;;;;;;;;;;;13.90;1.00;;;;;;6219835;23;19914;-86
2022/05/27 04:01:33;;;;;;;;;;;13.80;1.00;;;;;;6219042;23;19911;-85
2022/05/27 04:04:00;;;;;;;;;;;13.80;1.00;;;;;;6219720;23;19903;-86
2022/05/27 04:06:36;;;;;;;;;;;13.80;1.00;;;;;;6246291;23;20476;-86
2022/05/27 04:09:01;;;;;;;;;;;13.80;1.00;;;;;;6246246;23;20041;-86
2022/05/27 04:11:32;;;;;;;;;;;13.80;1.00;;;;;;6219141;23;19907;-85
2022/05/27 04:14:00;;;;;;;;;;;13.80;1.00;;;;;;6219579;23;20246;-85
2022/05/27 04:44:30;;;;;;;;;;;;;;;;;;;;;
2022/05/27 04:50:25;;;;;;;;;;;;;;;;;;;;;
2022/05/27 04:59:52;;;;;;;;;;;;;;;;;;;;;
2022/05/27 05:06:15;;;;;;;;;;;;;;;;;;;;;
2022/05/27 05:12:07;;;;;;;;;;;14.00;1.00;;;;;;6064267;23;19905;-86
2022/05/27 05:42:54;;;;;;;;;;;14.30;1.30;;;;;;6237473;23;20052;-84
2022/05/27 05:45:52;;;;;;;;;;;;;;;;;;;;;
2022/05/27 05:52:03;;;;;;;;;;;14.40;1.00;;;;;;6238018;23;19905;-84
2022/05/27 05:55:08;;;;;;;;;;;14.40;2.40;;;;;;6248151;23;19935;-86
2022/05/27 06:00:39;;;;;;;;;;;;;;;;;;;;;
2022/05/27 06:12:02;;;;;;;;;;;14.30;1.00;;;;;;6226225;23;19908;-84
2022/05/27 06:14:28;;;;;;;;;;;14.40;1.00;;;;;;6221851;23;19911;-85
2022/05/27 06:16:54;;;;;;;;;;;14.30;1.00;;;;;;6247078;23;19911;-84
2022/05/27 06:19:19;;;;;;;;;;;14.30;1.00;;;;;;6249084;23;19904;-84
2022/05/27 06:21:55;;;;;;;;;;;;;;;;;;;;;
2022/05/27 06:24:44;;;;;;;;;;;14.50;1.00;;;;;;6247204;23;19975;-85
2022/05/27 06:28:00;;;;;;;;;;;;;;;;;;;;;
2022/05/27 06:36:11;;;;;;;;;;;14.50;1.00;;;;;;6247327;23;19910;-85
2022/05/27 06:38:37;;;;;;;;;;;14.60;1.00;;;;;;6244942;23;19903;-84
2022/05/27 06:41:07;;;;;;;;;;;14.70;1.00;;;;;;6246906;23;19903;-84
2022/05/27 06:43:35;;;;;;;;;;;14.70;1.00;;;;;;6245595;23;19953;-84
2022/05/27 06:46:03;;;;;;;;;;;14.70;1.00;;;;;;6219528;23;19923;-84
2022/05/27 07:27:48;;;;;;;;;;;16.40;1.00;;;;;;6253100;22;20387;-86
2022/05/27 07:30:15;;;;;;;;;;;16.40;1.00;;;;;;6222142;23;19907;-86
2022/05/27 07:38:52;;;;;;;;;;;19.40;1.00;;;;;;6238184;22;20083;-85
2022/05/27 07:41:22;;;;;;;;;;;20.00;99.90;;;;;;6254594;23;19911;-85
2022/05/27 07:43:48;;;;;;;;;;;20.40;99.90;;;;;;6254242;23;20316;-86
2022/05/27 07:46:28;;;;;;;;;;;20.10;1.00;;;;;;6278587;22;20567;-85
2022/05/27 07:48:53;;;;;;;;;;;20.40;1.00;;;;;;6282279;22;19907;-85
2022/05/27 07:51:19;;;;;;;;;;;20.60;99.90;;;;;;6284177;22;20037;-85
2022/05/27 07:53:44;;;;;;;;;;;20.40;99.90;;;;;;6258694;22;19910;-84
2022/05/27 07:56:12;;;;;;;;;;;20.10;99.90;;;;;;6284886;22;19918;-85
2022/05/27 07:58:38;;;;;;;;;;;19.60;1.00;;;;;;6284398;22;19929;-85
2022/05/27 08:01:04;;;;;;;;;;;20.20;1.00;;;;;;6258013;22;19911;-85
2022/05/27 08:03:30;;;;;;;;;;;20.50;99.90;;;;;;6256340;22;19903;-85
2022/05/27 08:05:56;;;;;;;;;;;21.80;1.00;;;;;;6285361;22;19904;-86
2022/05/27 08:08:23;;;;;;;;;;;23.40;2.70;;;;;;6285146;22;19907;-85
2022/05/27 08:10:48;;;;;;;;;;;23.00;1.00;;;;;;6285695;22;19903;-86
2022/05/27 08:13:14;;;;;;;;;;;22.50;1.00;;;;;;6255842;22;19925;-85
2022/05/27 08:15:40;;;;;;;;;;;21.80;1.00;;;;;;6257272;22;20033;-85
2022/05/27 08:18:05;;;;;;;;;;;20.80;1.00;;;;;;6281260;22;19984;-84
2022/05/27 08:20:32;;;;;;;;;;;20.10;99.90;;;;;;6256424;22;19903;-84
2022/05/27 08:22:58;;;;;;;;;;;21.00;1.00;;;;;;6281011;22;19951;-84
2022/05/27 08:25:24;;;;;;;;;;;23.90;1.00;;;;;;6284942;22;20328;-85
2022/05/27 08:27:54;;;;;;;;;;;27.20;99.90;;;;;;6256875;22;19965;-86
2022/05/27 08:30:21;;;;;;;;;;;30.20;99.90;;;;;;6251200;22;20322;-83
2022/05/27 08:32:47;;;;;;;;;;;33.80;99.90;;;;;;6254299;22;19907;-83
2022/05/27 08:38:01;;;;;;;;;;;37.90;99.90;;;;;;6279334;22;19926;-83
2022/05/27 08:40:40;;;;;;;;;;;38.80;99.90;;;;;;6251317;22;20009;-83
2022/05/27 08:43:09;;;;;;;;;;;39.50;99.90;;;;;;6276861;22;19911;-83
2022/05/27 08:45:43;;;;;;;;;;;39.80;99.90;;;;;;6276285;22;19907;-83
2022/05/27 08:48:09;;;;;;;;;;;39.40;99.90;;;;;;6279566;22;19911;-83
2022/05/27 08:50:38;;;;;;;;;;;38.40;99.90;;;;;;6279517;22;19903;-84
2022/05/27 08:53:12;;;;;;;;;;;37.60;99.90;;;;;;6279366;22;19952;-84
2022/05/27 09:01:09;;;;;;;;;;;36.10;99.90;;;;;;6281327;22;19930;-84
2022/05/27 09:03:38;;;;;;;;;;;37.50;99.90;;;;;;6280475;22;20341;-84
2022/05/27 09:06:04;;;;;;;;;;;38.00;99.90;;;;;;6254926;22;19907;-84
2022/05/27 09:08:30;;;;;;;;;;;38.60;99.90;;;;;;6283254;22;19911;-84
2022/05/27 09:10:58;;;;;;;;;;;38.80;99.90;;;;;;6279890;22;19950;-84
2022/05/27 09:13:34;;;;;;;;;;;38.90;99.90;;;;;;6283378;22;19903;-84
2022/05/27 09:15:59;;;;;;;;;;;38.50;99.90;;;;;;6256642;22;19953;-84
2022/05/27 09:18:40;;;;;;;;;;;40.00;99.90;;;;;;6282362;22;19903;-84
2022/05/27 09:21:17;;;;;;;;;;;39.50;99.90;;;;;;6283893;22;19949;-84
2022/05/27 09:23:55;;;;;;;;;;;37.10;99.90;;;;;;6257646;22;19964;-84
2022/05/27 09:26:40;;;;;;;;;;;34.90;99.90;;;;;;6284975;22;19915;-83
2022/05/27 09:29:08;;;;;;;;;;;31.90;99.90;;;;;;6285605;22;20511;-84
2022/05/27 09:31:37;;;;;;;;;;;33.20;99.90;;;;;;6284206;22;19923;-85
2022/05/27 09:34:02;;;;;;;;;;;34.70;99.90;;;;;;6282472;22;19940;-84
2022/05/27 09:36:34;;;;;;;;;;;36.20;99.90;;;;;;6280803;22;19924;-84
2022/05/27 09:39:01;;;;;;;;;;;37.70;99.90;;;;;;6279773;22;19903;-84
2022/05/27 09:41:36;;;;;;;;;;;38.80;99.90;;;;;;6280629;22;19910;-85
2022/05/27 09:44:11;;;;;;;;;;;39.40;99.90;;;;;;6281694;22;19911;-85
2022/05/27 09:46:36;;;;;;;;;;;38.00;99.90;;;;;;6254378;22;20455;-84
2022/05/27 09:49:02;;;;;;;;;;;35.50;99.90;;;;;;6282988;22;19911;-84
2022/05/27 09:51:29;;;;;;;;;;;32.30;99.90;;;;;;6255049;22;20242;-84
2022/05/27 09:53:57;;;;;;;;;;;30.30;99.90;;;;;;6252789;22;19903;-84
2022/05/27 09:56:32;;;;;;;;;;;31.20;99.90;;;;;;6278885;22;19986;-84
2022/05/27 09:59:16;;;;;;;;;;;33.60;99.90;;;;;;6276685;22;19908;-84
2022/05/27 10:01:42;;;;;;;;;;;35.20;99.90;;;;;;6276286;22;19907;-84
2022/05/27 10:04:12;;;;;;;;;;;36.10;99.90;;;;;;6248906;22;19903;-84
2022/05/27 10:06:37;;;;;;;;;;;35.80;99.90;;;;;;6248761;22;20244;-84
2022/05/27 10:09:07;;;;;;;;;;;36.90;99.90;;;;;;6251626;22;19907;-84
2022/05/27 10:11:46;;;;;;;;;;;36.60;99.90;;;;;;6250606;22;19903;-85
2022/05/27 10:14:21;;;;;;;;;;;38.00;99.90;;;;;;6248178;22;20289;-84
2022/05/27 10:17:07;;;;;;;;;;;38.20;99.90;;;;;;6275496;22;19904;-85
2022/05/27 10:19:33;;;;;;;;;;;38.00;99.90;;;;;;6272629;22;19970;-84
2022/05/27 10:21:59;;;;;;;;;;;35.60;99.90;;;;;;6248241;22;20561;-85
2022/05/27 10:24:31;;;;;;;;;;;34.10;99.90;;;;;;6247677;22;19978;-85
2022/05/27 10:27:23;;;;;;;;;;;32.20;99.90;;;;;;6273811;22;19971;-84
2022/05/27 10:29:49;;;;;;;;;;;30.50;99.90;;;;;;6241925;22;19911;-85
2022/05/27 10:32:25;;;;;;;;;;;31.20;99.90;;;;;;6273099;22;19951;-84
2022/05/27 10:34:51;;;;;;;;;;;30.60;99.90;;;;;;6276063;22;19907;-84
2022/05/27 10:37:23;;;;;;;;;;;32.30;99.90;;;;;;6247285;22;20246;-84
2022/05/27 10:39:51;;;;;;;;;;;33.80;99.90;;;;;;6274817;22;20371;-84
2022/05/27 10:42:28;;;;;;;;;;;34.90;99.90;;;;;;6272828;22;19903;-84
2022/05/27 10:45:08;;;;;;;;;;;35.50;99.90;;;;;;6275543;22;19907;-85
2022/05/27 10:48:04;;;;;;;;;;;35.30;99.90;;;;;;6274193;22;19903;-85
2022/05/27 10:50:45;;;;;;;;;;;36.80;99.90;;;;;;6125550;23;20335;-85
2022/05/27 10:53:10;;;;;;;;;;;35.60;99.90;;;;;;6151462;23;19912;-85
2022/05/27 10:55:45;;;;;;;;;;;33.10;99.90;;;;;;6262425;22;19903;-85
2022/05/27 11:04:16;;;;;;;;;;;33.60;99.90;;;;;;6275600;22;19914;-84
2022/05/27 11:06:41;;;;;;;;;;;31.30;99.90;;;;;;6274936;22;19903;-84
2022/05/27 11:09:09;;;;;;;;;;;30.10;99.90;;;;;;6277379;22;19914;-84
2022/05/27 11:11:35;;;;;;;;;;;31.90;99.90;;;;;;6277271;22;19907;-84
2022/05/27 11:17:21;;;;;;;;;;;28.50;99.90;;;;;;6277941;22;19957;-84
2022/05/27 11:19:47;;;;;;;;;;;29.00;99.90;;;;;;6277676;22;20250;-84
2022/05/27 11:22:31;;;;;;;;;;;30.20;99.90;;;;;;6274514;22;19908;-84
2022/05/27 11:25:02;;;;;;;;;;;31.00;99.90;;;;;;6275424;22;20314;-84
2022/05/27 11:27:36;;;;;;;;;;;30.20;99.90;;;;;;6273978;22;19910;-84
2022/05/27 11:30:07;;;;;;;;;;;30.30;99.90;;;;;;6276510;22;20250;-84
2022/05/27 11:32:36;;;;;;;;;;;29.80;99.90;;;;;;6275413;22;19910;-84
2022/05/27 11:35:01;;;;;;;;;;;28.70;99.90;;;;;;6275265;22;20361;-84
2022/05/27 11:37:39;;;;;;;;;;;29.60;99.90;;;;;;6274875;22;19911;-84
2022/05/27 11:40:23;;;;;;;;;;;29.30;99.90;;;;;;6279632;22;19910;-84
2022/05/27 11:43:08;;;;;;;;;;;29.00;99.90;;;;;;6279880;22;19903;-84
2022/05/27 11:45:34;;;;;;;;;;;27.70;99.90;;;;;;6280934;22;20245;-83
2022/05/27 11:48:01;;;;;;;;;;;27.20;99.90;;;;;;6251311;22;19911;-86
2022/05/27 11:50:35;;;;;;;;;;;26.60;99.90;;;;;;6277717;22;19909;-84
2022/05/27 11:53:19;;;;;;;;;;;26.50;99.90;;;;;;6247863;22;19907;-84
2022/05/27 11:56:01;;;;;;;;;;;27.50;99.90;;;;;;6276456;22;19903;-84
2022/05/27 11:58:41;;;;;;;;;;;27.30;99.90;;;;;;6279508;22;19953;-84
2022/05/27 12:01:09;;;;;;;;;;;27.40;99.90;;;;;;6280772;22;19908;-84
2022/05/27 12:03:42;;;;;;;;;;;27.80;99.90;;;;;;6280652;22;19910;-84
2022/05/27 12:06:11;;;;;;;;;;;27.90;99.90;;;;;;6282591;22;19951;-84
2022/05/27 12:08:41;;;;;;;;;;;27.40;99.90;;;;;;6286485;22;19922;-83
2022/05/27 12:11:09;;;;;;;;;;;27.50;99.90;;;;;;6258017;22;19903;-82
2022/05/27 12:13:41;;;;;;;;;;;28.00;99.90;;;;;;6283553;22;19947;-84
2022/05/27 12:16:10;;;;;;;;;;;27.80;99.90;;;;;;6256377;22;19919;-83
2022/05/27 12:18:42;;;;;;;;;;;28.00;99.90;;;;;;6255128;22;19910;-84
2022/05/27 12:21:10;;;;;;;;;;;28.10;99.90;;;;;;6282420;22;19914;-83
2022/05/27 12:23:37;;;;;;;;;;;28.20;99.90;;;;;;6286417;22;20340;-83
2022/05/27 12:26:03;;;;;;;;;;;27.20;99.90;;;;;;6282923;22;19943;-83
2022/05/27 12:28:30;;;;;;;;;;;25.60;99.90;;;;;;6281374;22;20291;-83
2022/05/27 12:30:57;;;;;;;;;;;25.80;99.90;;;;;;6254609;22;20304;-83
2022/05/27 12:33:24;;;;;;;;;;;25.30;99.90;;;;;;6255944;22;19904;-83
2022/05/27 12:35:54;;;;;;;;;;;25.00;99.90;;;;;;6282065;22;19907;-82
2022/05/27 12:38:26;;;;;;;;;;;25.60;99.90;;;;;;6282563;22;20301;-83
2022/05/27 12:40:59;;;;;;;;;;;26.50;99.90;;;;;;6282299;22;19903;-83
2022/05/27 12:43:31;;;;;;;;;;;26.10;99.90;;;;;;6256611;22;19926;-83
2022/05/27 12:46:00;;;;;;;;;;;26.40;99.90;;;;;;6281747;22;19904;-83
2022/05/27 12:48:30;;;;;;;;;;;26.00;99.90;;;;;;6282604;22;19907;-83
2022/05/27 12:50:58;;;;;;;;;;;25.60;99.90;;;;;;6256967;22;19990;-83
2022/05/27 12:53:44;;;;;;;;;;;24.80;99.90;;;;;;6257063;22;19904;-83
2022/05/27 13:02:15;;;;;;;;;;;25.20;99.90;;;;;;6283210;22;19910;-83
2022/05/27 13:04:48;;;;;;;;;;;24.90;99.90;;;;;;6284042;22;19982;-83
2022/05/27 13:07:14;;;;;;;;;;;24.80;99.90;;;;;;6255532;22;19908;-83
2022/05/27 13:09:42;;;;;;;;;;;24.50;99.90;;;;;;6283952;22;19917;-83
2022/05/27 13:12:10;;;;;;;;;;;24.80;99.90;;;;;;6256985;22;19907;-83
2022/05/27 13:14:36;;;;;;;;;;;25.30;99.90;;;;;;6285878;22;20345;-83
2022/05/27 13:17:11;;;;;;;;;;;25.20;99.90;;;;;;6281506;22;19907;-83
2022/05/27 13:20:03;;;;;;;;;;;25.10;99.90;;;;;;6259041;22;19903;-83
2022/05/27 13:22:34;;;;;;;;;;;25.20;99.90;;;;;;6279829;22;20304;-83
2022/05/27 13:25:18;;;;;;;;;;;24.90;99.90;;;;;;6285316;22;20260;-83
2022/05/27 13:27:44;;;;;;;;;;;24.40;99.90;;;;;;6282547;22;19904;-83
2022/05/27 13:30:12;;;;;;;;;;;25.00;99.90;;;;;;6257948;22;19934;-82
2022/05/27 13:32:56;;;;;;;;;;;24.40;99.90;;;;;;6256528;22;19903;-83
2022/05/27 13:35:22;;;;;;;;;;;24.10;99.90;;;;;;6282041;22;19907;-83
2022/05/27 13:37:54;;;;;;;;;;;23.70;99.90;;;;;;6283429;22;19903;-82
2022/05/27 13:40:23;;;;;;;;;;;23.50;99.90;;;;;;6256851;22;19915;-82
2022/05/27 13:42:51;;;;;;;;;;;23.00;99.70;;;;;;6256863;22;19978;-83
2022/05/27 13:45:23;;;;;;;;;;;23.10;99.90;;;;;;6282446;22;19907;-83
2022/05/27 13:47:52;;;;;;;;;;;23.30;99.90;;;;;;6255556;22;19907;-83
2022/05/27 13:50:26;;;;;;;;;;;22.50;97.90;;;;;;6280914;22;19913;-82
2022/05/27 13:52:51;;;;;;;;;;;22.70;98.40;;;;;;6256731;22;19907;-82
2022/05/27 13:55:17;;;;;;;;;;;22.70;98.80;;;;;;6283901;22;19915;-83
2022/05/27 13:57:43;;;;;;;;;;;22.40;99.10;;;;;;6282973;22;19907;-81
2022/05/27 14:00:10;;;;;;;;;;;22.10;98.70;;;;;;6283121;22;19909;-83
2022/05/27 14:02:46;;;;;;;;;;;21.90;98.50;;;;;;6255312;22;20333;-83
2022/05/27 14:05:25;;;;;;;;;;;22.20;99.90;;;;;;6279915;22;19927;-82
2022/05/27 14:07:57;;;;;;;;;;;22.30;99.90;;;;;;6256367;22;19933;-82
2022/05/27 14:10:43;;;;;;;;;;;22.30;99.90;;;;;;6255384;22;19982;-82
2022/05/27 14:13:19;;;;;;;;;;;22.00;99.60;;;;;;6281868;22;20456;-82
2022/05/27 14:15:44;;;;;;;;;;;21.90;99.90;;;;;;6254812;22;19908;-83
2022/05/27 14:18:11;;;;;;;;;;;21.90;99.90;;;;;;6281151;22;19988;-82
2022/05/27 14:23:25;;;;;;;;;;;21.70;99.90;;;;;;6285534;22;19926;-82
2022/05/27 14:25:59;;;;;;;;;;;21.90;99.90;;;;;;6285141;22;20000;-82
2022/05/27 14:28:27;;;;;;;;;;;21.80;99.40;;;;;;6282539;22;20257;-83
2022/05/27 14:30:55;;;;;;;;;;;21.90;99.90;;;;;;6281060;22;19926;-83
2022/05/27 14:33:28;;;;;;;;;;;21.80;99.80;;;;;;6254136;22;19969;-82
2022/05/27 14:35:54;;;;;;;;;;;21.70;99.90;;;;;;6280430;22;20341;-82
2022/05/27 14:38:22;;;;;;;;;;;21.90;99.90;;;;;;6257162;22;19907;-82
2022/05/27 14:40:51;;;;;;;;;;;22.00;99.90;;;;;;6282640;22;19954;-82
2022/05/27 14:43:35;;;;;;;;;;;21.90;99.90;;;;;;6283977;22;19993;-82
2022/05/27 14:46:33;;;;;;;;;;;21.70;99.50;;;;;;6283013;22;19907;-82
2022/05/27 14:49:00;;;;;;;;;;;21.40;98.20;;;;;;6207036;22;19911;-82
2022/05/27 14:51:37;;;;;;;;;;;21.60;99.00;;;;;;6255542;22;19911;-82
2022/05/27 14:54:26;;;;;;;;;;;21.60;99.80;;;;;;6255579;22;19955;-82
2022/05/27 14:57:10;;;;;;;;;;;21.20;98.20;;;;;;6266734;22;20425;-82
2022/05/27 14:59:36;;;;;;;;;;;21.10;98.50;;;;;;6282481;22;19953;-82
2022/05/27 15:02:02;;;;;;;;;;;21.10;99.20;;;;;;6260536;22;19918;-82
2022/05/27 15:04:30;;;;;;;;;;;21.10;99.40;;;;;;6259137;22;19903;-82
2022/05/27 15:06:58;;;;;;;;;;;21.20;99.70;;;;;;6257649;22;19904;-82
2022/05/27 15:09:29;;;;;;;;;;;21.30;99.90;;;;;;6286194;22;19919;-82
2022/05/27 15:12:11;;;;;;;;;;;21.30;98.90;;;;;;6257511;22;19914;-82
2022/05/27 15:14:42;;;;;;;;;;;21.40;99.50;;;;;;6287072;22;19923;-82
2022/05/27 15:17:16;;;;;;;;;;;21.50;99.90;;;;;;6257544;22;19907;-82
2022/05/27 15:19:46;;;;;;;;;;;21.30;99.00;;;;;;6285346;22;19903;-82
2022/05/27 15:22:13;;;;;;;;;;;21.00;97.90;;;;;;6285101;22;19903;-82
2022/05/27 15:24:42;;;;;;;;;;;20.90;97.40;;;;;;6253683;23;20025;-82
2022/05/27 15:35:31;;;;;;;;;;;20.80;99.00;;;;;;6255023;23;19958;-83
2022/05/27 15:37:57;;;;;;;;;;;20.80;99.10;;;;;;6277925;22;19904;-82
2022/05/27 15:40:23;;;;;;;;;;;20.80;99.00;;;;;;6253197;22;19907;-82
2022/05/27 15:42:49;;;;;;;;;;;20.90;99.60;;;;;;6278616;22;19914;-82
2022/05/27 15:45:16;;;;;;;;;;;20.80;99.90;;;;;;6254557;22;19910;-82
2022/05/27 15:47:41;;;;;;;;;;;20.70;99.00;;;;;;6252941;22;19907;-82
2022/05/27 15:50:08;;;;;;;;;;;21.00;99.90;;;;;;6253445;22;19903;-82
2022/05/27 15:52:33;;;;;;;;;;;20.90;98.60;;;;;;6254742;23;19930;-83
2022/05/27 15:54:59;;;;;;;;;;;21.00;99.80;;;;;;6255471;22;19907;-82
2022/05/27 15:57:25;;;;;;;;;;;20.80;98.70;;;;;;6254675;22;19904;-82
2022/05/27 15:59:50;;;;;;;;;;;20.60;99.10;;;;;;6280735;22;19927;-82
2022/05/27 16:02:16;;;;;;;;;;;20.50;98.80;;;;;;6252183;22;19985;-83
2022/05/27 16:04:42;;;;;;;;;;;20.40;97.50;;;;;;6278758;22;19911;-82
2022/05/27 16:07:08;;;;;;;;;;;20.30;98.90;;;;;;6276770;22;19915;-83
2022/05/27 16:09:33;;;;;;;;;;;20.30;96.60;;;;;;6250956;22;19907;-80
2022/05/27 16:11:59;;;;;;;;;;;20.30;97.20;;;;;;6252124;22;19908;-81
2022/05/27 16:14:26;;;;;;;;;;;20.40;97.50;;;;;;6252952;22;19987;-82
2022/05/27 16:19:36;;;;;;;;;;;20.30;96.10;;;;;;6253489;22;19911;-81
2022/05/27 16:22:01;;;;;;;;;;;20.30;96.40;;;;;;6276795;22;19904;-81
2022/05/27 16:24:27;;;;;;;;;;;20.20;99.90;;;;;;6252155;22;19915;-81
2022/05/27 16:26:52;;;;;;;;;;;20.10;95.90;;;;;;6278869;22;19974;-81
2022/05/27 16:29:18;;;;;;;;;;;20.20;96.70;;;;;;6250985;22;19912;-81
2022/05/27 16:31:49;;;;;;;;;;;20.10;96.70;;;;;;6277656;22;19904;-81
2022/05/27 16:34:16;;;;;;;;;;;20.00;96.20;;;;;;6250997;22;19974;-81
2022/05/27 16:36:41;;;;;;;;;;;20.00;96.60;;;;;;6253381;22;19909;-81
2022/05/27 16:39:06;;;;;;;;;;;20.00;96.10;;;;;;6253571;22;19912;-81
2022/05/27 16:41:32;;;;;;;;;;;20.00;96.50;;;;;;6254531;22;19914;-81
2022/05/27 16:43:58;;;;;;;;;;;20.00;96.50;;;;;;6255196;22;19938;-81
2022/05/27 16:46:23;;;;;;;;;;;19.80;96.20;;;;;;6251847;22;20330;-81
2022/05/27 16:48:49;;;;;;;;;;;19.70;95.00;;;;;;6254772;22;19996;-81
2022/05/27 16:51:14;;;;;;;;;;;19.60;94.50;;;;;;6254499;22;20347;-81
2022/05/27 16:53:40;;;;;;;;;;;19.50;94.60;;;;;;6256697;22;19911;-82
2022/05/27 16:56:08;;;;;;;;;;;19.50;96.50;;;;;;6255426;22;20219;-81
2022/05/27 16:58:34;;;;;;;;;;;19.40;97.60;;;;;;6256659;22;19914;-83
2022/05/27 17:00:59;;;;;;;;;;;19.20;97.30;;;;;;6281165;22;19907;-82
2022/05/27 17:03:27;;;;;;;;;;;19.20;97.30;;;;;;6281594;22;19903;-81
2022/05/27 17:05:53;;;;;;;;;;;19.20;98.50;;;;;;6280932;22;19910;-81
2022/05/27 17:08:19;;;;;;;;;;;19.20;98.80;;;;;;6254172;22;20261;-81
2022/05/27 17:10:44;;;;;;;;;;;19.10;99.10;;;;;;6279560;22;19952;-81
2022/05/27 17:13:10;;;;;;;;;;;19.10;99.40;;;;;;6255034;22;19956;-81
2022/05/27 17:15:35;;;;;;;;;;;19.10;99.70;;;;;;6256502;22;19904;-80
2022/05/27 17:18:01;;;;;;;;;;;19.00;99.90;;;;;;6255721;22;19904;-81
2022/05/27 17:20:26;;;;;;;;;;;18.80;99.60;;;;;;6279985;22;19907;-81
2022/05/27 17:22:52;;;;;;;;;;;18.70;99.50;;;;;;6254504;22;20230;-82
2022/05/27 17:25:18;;;;;;;;;;;18.80;99.80;;;;;;6252284;22;19977;-81
2022/05/27 17:27:43;;;;;;;;;;;18.90;99.90;;;;;;6248968;22;19904;-80
2022/05/27 17:30:09;;;;;;;;;;;18.90;99.90;;;;;;6254606;22;19934;-81
2022/05/27 17:32:35;;;;;;;;;;;18.70;99.90;;;;;;6254309;22;19908;-81
2022/05/27 17:35:00;;;;;;;;;;;18.70;99.90;;;;;;6279258;22;19904;-82
2022/05/27 17:37:26;;;;;;;;;;;18.60;99.90;;;;;;6281728;22;19903;-82
2022/05/27 17:39:51;;;;;;;;;;;18.80;99.90;;;;;;6256544;22;19910;-81
2022/05/27 17:42:17;;;;;;;;;;;18.80;99.90;;;;;;6282130;22;19935;-81
2022/05/27 17:44:42;;;;;;;;;;;18.80;99.90;;;;;;6256884;22;19908;-81
2022/05/27 17:52:37;;;;;;;;;;;18.60;99.90;;;;;;6256359;23;19915;-82
2022/05/27 17:55:03;;;;;;;;;;;18.30;99.90;;;;;;6255116;22;19899;-81
2022/05/27 17:57:29;;;;;;;;;;;18.20;99.90;;;;;;6253102;22;19904;-81
2022/05/27 17:59:54;;;;;;;;;;;18.20;99.90;;;;;;6252598;22;20238;-80
2022/05/27 18:02:20;;;;;;;;;;;18.10;99.90;;;;;;6277259;22;19983;-81
2022/05/27 18:04:46;;;;;;;;;;;18.00;99.90;;;;;;6254888;22;19904;-81
2022/05/27 18:07:16;;;;;;;;;;;17.80;99.90;;;;;;6252112;22;19982;-81
2022/05/27 18:09:43;;;;;;;;;;;17.70;99.90;;;;;;6251814;22;19911;-81
2022/05/27 18:12:09;;;;;;;;;;;17.60;99.90;;;;;;6249910;22;19907;-80
2022/05/27 18:14:34;;;;;;;;;;;17.60;99.90;;;;;;6251945;22;19911;-80
2022/05/27 18:16:59;;;;;;;;;;;17.60;99.90;;;;;;6251711;22;19907;-83
2022/05/27 18:19:25;;;;;;;;;;;17.50;99.90;;;;;;6275223;22;19903;-80
2022/05/27 18:21:50;;;;;;;;;;;17.50;99.90;;;;;;6251319;22;20318;-81
2022/05/27 18:24:16;;;;;;;;;;;17.30;99.90;;;;;;6274572;22;19951;-81
2022/05/27 18:26:41;;;;;;;;;;;17.20;99.90;;;;;;6274069;22;19925;-81
2022/05/27 18:29:07;;;;;;;;;;;17.10;99.90;;;;;;6252373;22;20330;-81
2022/05/27 18:31:32;;;;;;;;;;;17.00;99.90;;;;;;6276115;22;19930;-81
2022/05/27 18:33:58;;;;;;;;;;;16.90;99.90;;;;;;6275444;22;19911;-81
2022/05/27 18:36:23;;;;;;;;;;;16.70;99.90;;;;;;6250869;22;19908;-81
2022/05/27 18:38:52;;;;;;;;;;;16.70;99.90;;;;;;6250690;22;19914;-81
2022/05/27 18:41:18;;;;;;;;;;;16.60;99.90;;;;;;6275561;22;19943;-81
2022/05/27 18:43:45;;;;;;;;;;;16.50;99.90;;;;;;6252427;22;19990;-81
2022/05/27 18:46:11;;;;;;;;;;;16.50;99.90;;;;;;6251297;22;19907;-81
2022/05/27 18:48:38;;;;;;;;;;;16.40;99.90;;;;;;6273868;22;19914;-81
2022/05/27 18:51:04;;;;;;;;;;;16.30;99.90;;;;;;6250544;22;19910;-81
2022/05/27 18:53:30;;;;;;;;;;;16.20;99.90;;;;;;6251533;22;19908;-81
2022/05/27 18:55:55;;;;;;;;;;;16.10;99.90;;;;;;6275644;22;20380;-81
2022/05/27 18:58:21;;;;;;;;;;;16.10;99.90;;;;;;6250753;22;19907;-81